»·PEaware :: N101JP KVNY-KNZY

N101JP :: KVNY-KNZY

FLIGHT INFORMATION

Flight Status: Arrived
Operator: Privately registered:
United States
More flights under this callsign
Pilot: James T. (870)
Aircraft: PILATUS PC-12 EAGLE
(PC12)
More flights by this aircraft type
Origin: KVNY Van Nuys
United States
Destination: KNZY North Island NAS
United States
More flights between these airports :: More routes between these airports
Route: TWINE V518 KIMMO V459 SLI V23 KELPS MZB
File this flight plan on PilotEdge
Remarks:
Altitude:
(Current/Filed)
90ft
Speed:
(Current/Filed)
200kts
Departed: 07-Mar-15 04:47 PM
Arrived: 07-Mar-15 05:43 PM
Distance/Time
Traveled:
111nm/0:56
Distance/Time
To Go:
Arrived

Flight Plot

Page will automatically refresh every two minutes.


Map Options




Map Legend


Flown Route
Filed Route
Departure Airport
Arrival Airport
Navaid (VOR, NDB)
Fix

Horizontal Profiles

Position Reports

Time Latitude Longitude Heading Altitude Ground
Speed
07-Mar-15 16:20 34.206733 -118.487400 172 808ft 0kts
07-Mar-15 16:21 34.206733 -118.487400 172 808ft 0kts
07-Mar-15 16:22 34.206733 -118.487400 172 808ft 0kts
07-Mar-15 16:23 34.206733 -118.487400 172 808ft 0kts
07-Mar-15 16:24 34.206733 -118.487400 172 808ft 0kts
07-Mar-15 16:25 34.206733 -118.487400 172 808ft 0kts
07-Mar-15 16:26 34.206733 -118.487400 172 808ft 0kts
07-Mar-15 16:27 34.206733 -118.487400 172 808ft 0kts
07-Mar-15 16:28 34.206733 -118.487400 172 808ft 0kts
07-Mar-15 16:29 34.206733 -118.487400 172 808ft 0kts
07-Mar-15 16:30 34.206733 -118.487400 172 808ft 0kts
07-Mar-15 16:31 34.206733 -118.487400 172 808ft 0kts
07-Mar-15 16:32 34.206733 -118.487400 172 808ft 0kts
07-Mar-15 16:33 34.206749 -118.487566 334 808ft 1kts
07-Mar-15 16:34 34.206825 -118.487620 331 808ft 2kts
07-Mar-15 16:35 34.209903 -118.488326 354 808ft 13kts
07-Mar-15 16:36 34.213261 -118.488693 358 808ft 15kts
07-Mar-15 16:37 34.216815 -118.489197 345 808ft 12kts
07-Mar-15 16:38 34.218441 -118.489437 351 808ft 0kts
07-Mar-15 16:39 34.218636 -118.489475 342 808ft 7kts
07-Mar-15 16:40 34.217661 -118.491136 174 808ft 34kts
07-Mar-15 16:41 34.187086 -118.475561 119 1801ft 173kts
07-Mar-15 16:42 34.161803 -118.426236 124 3680ft 172kts
07-Mar-15 16:43 34.138038 -118.377993 124 5535ft 166kts
07-Mar-15 16:44 34.118250 -118.329416 85 7170ft 172kts
07-Mar-15 16:45 34.159179 -118.322451 339 8673ft 179kts
07-Mar-15 16:46 34.213040 -118.342663 342 9004ft 233kts
07-Mar-15 16:47 34.279585 -118.367781 345 9005ft 259kts
07-Mar-15 16:48 34.347407 -118.393392 345 9009ft 249kts
07-Mar-15 16:49 34.410783 -118.402406 41 8990ft 222kts
07-Mar-15 16:50 34.385145 -118.359634 169 9028ft 204kts
07-Mar-15 16:51 34.332389 -118.346190 160 9015ft 183kts
07-Mar-15 16:52 34.278343 -118.325482 158 9016ft 225kts
07-Mar-15 16:53 34.218770 -118.297831 158 9038ft 233kts
07-Mar-15 16:54 34.159079 -118.267084 157 9042ft 236kts
07-Mar-15 16:55 34.098673 -118.234270 157 9004ft 240kts
07-Mar-15 16:56 34.048293 -118.206172 157 8993ft 242kts
07-Mar-15 16:57 33.988026 -118.172106 157 8989ft 245kts
07-Mar-15 16:58 33.926572 -118.137105 157 8980ft 247kts
07-Mar-15 16:59 33.864604 -118.101693 157 8979ft 247kts
07-Mar-15 17:00 33.802997 -118.066455 158 8984ft 245kts
07-Mar-15 17:01 33.749825 -118.015425 139 8995ft 249kts
07-Mar-15 17:02 33.700610 -117.957506 139 8995ft 248kts
07-Mar-15 17:03 33.651730 -117.900000 139 8997ft 247kts
07-Mar-15 17:04 33.604901 -117.844162 139 8991ft 239kts
07-Mar-15 17:05 33.559430 -117.790339 139 8995ft 224kts
07-Mar-15 17:06 33.515355 -117.738439 139 8997ft 220kts
07-Mar-15 17:07 33.471661 -117.687163 139 8999ft 223kts
07-Mar-15 17:08 33.427809 -117.635830 138 9002ft 226kts
07-Mar-15 17:09 33.382624 -117.583031 138 9000ft 225kts
07-Mar-15 17:10 33.338149 -117.531153 138 9000ft 224kts
07-Mar-15 17:11 33.289617 -117.496689 157 8993ft 221kts
07-Mar-15 17:12 33.234233 -117.466849 157 8989ft 216kts
07-Mar-15 17:13 33.178932 -117.437168 156 8686ft 230kts
07-Mar-15 17:14 33.117275 -117.404106 155 7228ft 250kts
07-Mar-15 17:15 33.057513 -117.372123 155 6994ft 221kts
07-Mar-15 17:16 33.002789 -117.343000 156 6998ft 212kts
07-Mar-15 17:17 32.946356 -117.335705 188 6999ft 211kts
07-Mar-15 17:18 32.883313 -117.344499 186 5690ft 241kts
07-Mar-15 17:19 32.815602 -117.353213 187 4204ft 247kts
07-Mar-15 17:20 32.747592 -117.361769 187 3005ft 239kts
07-Mar-15 17:21 32.684366 -117.369655 187 2987ft 222kts
07-Mar-15 17:22 32.624668 -117.382511 207 2991ft 217kts
07-Mar-15 17:23 32.567750 -117.401832 157 2988ft 221kts
07-Mar-15 17:24 32.512611 -117.376841 206 2992ft 215kts
07-Mar-15 17:25 32.466610 -117.420093 220 2998ft 201kts
07-Mar-15 17:26 32.432454 -117.462164 276 2994ft 164kts
07-Mar-15 17:27 32.464484 -117.459907 43 3004ft 158kts
07-Mar-15 17:28 32.495061 -117.421846 43 3003ft 160kts
07-Mar-15 17:29 32.525117 -117.382572 65 2997ft 164kts
07-Mar-15 17:30 32.526595 -117.328258 86 3005ft 165kts
07-Mar-15 17:31 32.528846 -117.280047 76 2977ft 134kts
07-Mar-15 17:32 32.562395 -117.256036 19 1659ft 149kts
07-Mar-15 17:33 32.595632 -117.239644 18 1593ft 115kts
07-Mar-15 17:34 32.628432 -117.229838 5 836ft 137kts
07-Mar-15 17:35 32.662568 -117.223823 4 492ft 110kts
07-Mar-15 17:36 32.691141 -117.217847 8 32ft 84kts
07-Mar-15 17:37 32.697950 -117.215603 15 32ft 11kts
07-Mar-15 17:38 32.697976 -117.212412 115 31ft 18kts
07-Mar-15 17:39 32.698742 -117.212102 307 32ft 0kts
07-Mar-15 17:40 32.698742 -117.212102 307 32ft 0kts

Navigation Log

Ident Type
Flight plan parsing failed, navigation log unavailable